Lost River, West Virginia
Current Conditions -  °F | °C
As of 5:55 PM on Thursday 23 Oct 2014 (Local Time) from K8W2 Reporting Station
Clear Clear  
Wind Chill: 58°   Ceiling: Unl
Heat Index: 58°   Visibility: 10mi
Dew Point: 42°   Wind: 6mph
Humidity: 54%   Direction: 10°N
Pressure: 29.98"   Gusts: NA
Location:  38.9097°N, 78.8027°W
Report Text: K8W2 232155Z AUTO 01005KT 10SM CLR 15/06 A2998 RMK AO1 T01460055
Loading
Personal Weather Stations






























Interactive Weather Map
Tropical Storm Tracking
New forecast layout! Learn more

10-Day Weather Forecast

Advertisements
Track Severe Weather on mobile